sensor_id;sensor_type;location;lat;lon;timestamp;pressure;altitude;pressure_sealevel;temperature;humidity
19112;BME280;9688;51.906;8.376;2022-12-29T00:00:25;99494.59;;;11.59;92.51
19112;BME280;9688;51.906;8.376;2022-12-29T00:03:11;99500.72;;;11.60;92.97
19112;BME280;9688;51.906;8.376;2022-12-29T00:05:58;99492.72;;;11.61;93.11
19112;BME280;9688;51.906;8.376;2022-12-29T00:08:46;99482.22;;;11.60;92.59
19112;BME280;9688;51.906;8.376;2022-12-29T00:11:31;99487.50;;;11.60;93.83
19112;BME280;9688;51.906;8.376;2022-12-29T00:14:17;99480.50;;;11.59;92.91
19112;BME280;9688;51.906;8.376;2022-12-29T00:17:21;99470.13;;;11.56;93.12
19112;BME280;9688;51.906;8.376;2022-12-29T00:20:08;99466.50;;;11.57;93.30
19112;BME280;9688;51.906;8.376;2022-12-29T00:23:11;99453.28;;;11.57;93.43
19112;BME280;9688;51.906;8.376;2022-12-29T00:26:16;99462.06;;;11.57;93.41
19112;BME280;9688;51.906;8.376;2022-12-29T00:29:19;99450.56;;;11.58;93.37
19112;BME280;9688;51.906;8.376;2022-12-29T00:32:24;99438.34;;;11.56;93.27
19112;BME280;9688;51.906;8.376;2022-12-29T00:35:30;99448.84;;;11.57;94.25
19112;BME280;9688;51.906;8.376;2022-12-29T00:38:17;99444.38;;;11.58;94.15
19112;BME280;9688;51.906;8.376;2022-12-29T00:41:21;99443.53;;;11.57;93.64
19112;BME280;9688;51.906;8.376;2022-12-29T00:44:24;99433.78;;;11.58;93.81
19112;BME280;9688;51.906;8.376;2022-12-29T00:47:10;99433.78;;;11.58;93.61
19112;BME280;9688;51.906;8.376;2022-12-29T00:49:57;99428.50;;;11.58;94.02
19112;BME280;9688;51.906;8.376;2022-12-29T00:52:42;99439.97;;;11.58;93.94
19112;BME280;9688;51.906;8.376;2022-12-29T00:55:28;99434.75;;;11.57;94.05
19112;BME280;9688;51.906;8.376;2022-12-29T00:58:13;99420.56;;;11.58;94.79
19112;BME280;9688;51.906;8.376;2022-12-29T01:01:02;99423.13;;;11.59;94.53
19112;BME280;9688;51.906;8.376;2022-12-29T01:03:48;99419.63;;;11.59;94.10
19112;BME280;9688;51.906;8.376;2022-12-29T01:06:36;99410.84;;;11.58;94.51
19112;BME280;9688;51.906;8.376;2022-12-29T01:09:22;99412.63;;;11.58;94.60
19112;BME280;9688;51.906;8.376;2022-12-29T01:12:25;99415.38;;;11.56;94.99
19112;BME280;9688;51.906;8.376;2022-12-29T01:15:19;99408.09;;;11.60;94.89
19112;BME280;9688;51.906;8.376;2022-12-29T01:18:05;99404.31;;;11.64;94.46
19112;BME280;9688;51.906;8.376;2022-12-29T01:20:50;99412.91;;;11.68;94.22
19112;BME280;9688;51.906;8.376;2022-12-29T01:23:36;99407.34;;;11.72;94.58
19112;BME280;9688;51.906;8.376;2022-12-29T01:26:22;99402.78;;;11.74;94.20
19112;BME280;9688;51.906;8.376;2022-12-29T01:29:07;99392.38;;;11.71;94.71
19112;BME280;9688;51.906;8.376;2022-12-29T01:31:54;99398.63;;;11.70;95.40
19112;BME280;9688;51.906;8.376;2022-12-29T01:34:40;99399.47;;;11.71;96.00
19112;BME280;9688;51.906;8.376;2022-12-29T01:37:25;99392.38;;;11.71;95.26
19112;BME280;9688;51.906;8.376;2022-12-29T01:40:11;99379.06;;;11.73;96.15
19112;BME280;9688;51.906;8.376;2022-12-29T01:42:58;99370.38;;;11.71;96.08
19112;BME280;9688;51.906;8.376;2022-12-29T01:45:45;99366.66;;;11.73;96.14
19112;BME280;9688;51.906;8.376;2022-12-29T01:48:34;99369.19;;;11.75;95.47
19112;BME280;9688;51.906;8.376;2022-12-29T01:51:21;99370.81;;;11.77;96.13
19112;BME280;9688;51.906;8.376;2022-12-29T01:54:11;99364.47;;;11.80;96.05
19112;BME280;9688;51.906;8.376;2022-12-29T01:56:59;99368.94;;;11.79;95.91
19112;BME280;9688;51.906;8.376;2022-12-29T01:59:51;99375.19;;;11.78;97.09
19112;BME280;9688;51.906;8.376;2022-12-29T02:02:42;99367.44;;;11.75;96.63
19112;BME280;9688;51.906;8.376;2022-12-29T02:05:33;99361.47;;;11.72;97.74
19112;BME280;9688;51.906;8.376;2022-12-29T02:08:24;99372.25;;;11.69;98.01
19112;BME280;9688;51.906;8.376;2022-12-29T02:11:12;99366.22;;;11.67;97.89
19112;BME280;9688;51.906;8.376;2022-12-29T02:13:58;99369.78;;;11.66;98.65
19112;BME280;9688;51.906;8.376;2022-12-29T02:16:57;99347.88;;;11.64;98.30
19112;BME280;9688;51.906;8.376;2022-12-29T02:20:11;99347.97;;;11.62;99.24
19112;BME280;9688;51.906;8.376;2022-12-29T02:26:28;99353.06;;;11.65;99.44
19112;BME280;9688;51.906;8.376;2022-12-29T02:29:54;99332.66;;;11.67;99.27
19112;BME280;9688;51.906;8.376;2022-12-29T02:32:49;99351.63;;;11.74;98.86
19112;BME280;9688;51.906;8.376;2022-12-29T02:35:41;99351.34;;;11.78;98.92
19112;BME280;9688;51.906;8.376;2022-12-29T02:38:45;99350.03;;;11.86;98.59
19112;BME280;9688;51.906;8.376;2022-12-29T02:41:36;99334.59;;;11.92;98.17
19112;BME280;9688;51.906;8.376;2022-12-29T02:44:31;99330.78;;;11.96;98.27
19112;BME280;9688;51.906;8.376;2022-12-29T02:47:24;99341.19;;;11.99;97.87
19112;BME280;9688;51.906;8.376;2022-12-29T02:50:18;99334.75;;;12.03;97.40
19112;BME280;9688;51.906;8.376;2022-12-29T02:53:09;99317.63;;;12.09;96.69
19112;BME280;9688;51.906;8.376;2022-12-29T02:55:56;99312.94;;;12.13;96.77
19112;BME280;9688;51.906;8.376;2022-12-29T02:58:40;99328.66;;;12.16;96.62
19112;BME280;9688;51.906;8.376;2022-12-29T03:01:37;99305.47;;;12.19;96.26
19112;BME280;9688;51.906;8.376;2022-12-29T03:04:31;99323.81;;;12.22;96.45
19112;BME280;9688;51.906;8.376;2022-12-29T03:07:27;99319.16;;;12.26;96.02
19112;BME280;9688;51.906;8.376;2022-12-29T03:10:31;99305.78;;;12.27;95.95
19112;BME280;9688;51.906;8.376;2022-12-29T03:13:25;99303.88;;;12.30;95.65
19112;BME280;9688;51.906;8.376;2022-12-29T03:16:37;99316.19;;;12.31;95.80
19112;BME280;9688;51.906;8.376;2022-12-29T03:19:27;99311.63;;;12.33;95.55
19112;BME280;9688;51.906;8.376;2022-12-29T03:22:18;99321.16;;;12.35;95.55
19112;BME280;9688;51.906;8.376;2022-12-29T03:25:16;99310.69;;;12.34;95.62
19112;BME280;9688;51.906;8.376;2022-12-29T03:28:07;99310.47;;;12.37;95.24
19112;BME280;9688;51.906;8.376;2022-12-29T03:30:55;99316.41;;;12.40;94.97
19112;BME280;9688;51.906;8.376;2022-12-29T03:33:43;99304.97;;;12.40;94.63
19112;BME280;9688;51.906;8.376;2022-12-29T03:36:35;99295.13;;;12.42;94.48
19112;BME280;9688;51.906;8.376;2022-12-29T03:39:25;99298.50;;;12.44;94.29
19112;BME280;9688;51.906;8.376;2022-12-29T03:42:14;99282.59;;;12.44;93.92
19112;BME280;9688;51.906;8.376;2022-12-29T03:45:01;99282.28;;;12.48;93.97
19112;BME280;9688;51.906;8.376;2022-12-29T03:47:47;99274.34;;;12.48;92.98
19112;BME280;9688;51.906;8.376;2022-12-29T03:50:33;99272.31;;;12.52;92.78
19112;BME280;9688;51.906;8.376;2022-12-29T03:53:19;99279.34;;;12.53;93.25
19112;BME280;9688;51.906;8.376;2022-12-29T03:56:04;99277.41;;;12.55;92.58
19112;BME280;9688;51.906;8.376;2022-12-29T03:58:51;99273.72;;;12.58;91.87
19112;BME280;9688;51.906;8.376;2022-12-29T04:01:37;99267.47;;;12.59;92.21
19112;BME280;9688;51.906;8.376;2022-12-29T04:04:23;99277.94;;;12.60;91.73
19112;BME280;9688;51.906;8.376;2022-12-29T04:07:08;99278.78;;;12.61;91.58
19112;BME280;9688;51.906;8.376;2022-12-29T04:09:54;99273.41;;;12.62;91.54
19112;BME280;9688;51.906;8.376;2022-12-29T04:12:40;99269.06;;;12.61;91.38
19112;BME280;9688;51.906;8.376;2022-12-29T04:15:31;99266.41;;;12.61;91.10
19112;BME280;9688;51.906;8.376;2022-12-29T04:18:16;99273.50;;;12.61;90.96
19112;BME280;9688;51.906;8.376;2022-12-29T04:21:02;99273.50;;;12.61;90.65
19112;BME280;9688;51.906;8.376;2022-12-29T04:23:47;99260.34;;;12.59;90.73
19112;BME280;9688;51.906;8.376;2022-12-29T04:26:33;99273.63;;;12.59;91.01
19112;BME280;9688;51.906;8.376;2022-12-29T04:29:18;99259.31;;;12.62;90.37
19112;BME280;9688;51.906;8.376;2022-12-29T04:32:05;99267.13;;;12.63;90.39
19112;BME280;9688;51.906;8.376;2022-12-29T04:34:51;99266.91;;;12.66;89.71
19112;BME280;9688;51.906;8.376;2022-12-29T04:37:36;99262.38;;;12.68;89.72
19112;BME280;9688;51.906;8.376;2022-12-29T04:40:22;99265.78;;;12.70;89.57
19112;BME280;9688;51.906;8.376;2022-12-29T04:43:09;99254.19;;;12.71;89.17
19112;BME280;9688;51.906;8.376;2022-12-29T04:45:55;99264.09;;;12.69;89.66
19112;BME280;9688;51.906;8.376;2022-12-29T04:48:42;99258.25;;;12.64;88.94
19112;BME280;9688;51.906;8.376;2022-12-29T04:51:27;99248.69;;;12.62;90.05
19112;BME280;9688;51.906;8.376;2022-12-29T04:54:13;99250.81;;;12.57;90.33
19112;BME280;9688;51.906;8.376;2022-12-29T04:56:58;99254.53;;;12.54;90.30
19112;BME280;9688;51.906;8.376;2022-12-29T04:59:44;99252.00;;;12.53;90.23
19112;BME280;9688;51.906;8.376;2022-12-29T05:02:30;99254.66;;;12.53;90.75
19112;BME280;9688;51.906;8.376;2022-12-29T05:05:17;99251.13;;;12.52;90.54
19112;BME280;9688;51.906;8.376;2022-12-29T05:08:03;99236.94;;;12.53;90.78
19112;BME280;9688;51.906;8.376;2022-12-29T05:10:50;99238.00;;;12.50;90.43
19112;BME280;9688;51.906;8.376;2022-12-29T05:13:36;99223.91;;;12.50;90.80
19112;BME280;9688;51.906;8.376;2022-12-29T05:16:22;99227.47;;;12.49;90.51
19112;BME280;9688;51.906;8.376;2022-12-29T05:23:27;99221.63;;;12.44;90.90
19112;BME280;9688;51.906;8.376;2022-12-29T05:26:13;99216.34;;;12.44;91.25
19112;BME280;9688;51.906;8.376;2022-12-29T05:28:58;99208.50;;;12.42;90.88
19112;BME280;9688;51.906;8.376;2022-12-29T05:31:44;99213.91;;;12.41;91.16
19112;BME280;9688;51.906;8.376;2022-12-29T05:34:29;99206.78;;;12.41;90.98
19112;BME280;9688;51.906;8.376;2022-12-29T05:37:14;99214.75;;;12.41;91.19
19112;BME280;9688;51.906;8.376;2022-12-29T05:40:10;99199.72;;;12.42;91.23
19112;BME280;9688;51.906;8.376;2022-12-29T05:42:58;99209.34;;;12.43;91.17
19112;BME280;9688;51.906;8.376;2022-12-29T05:45:43;99213.69;;;12.44;91.52
19112;BME280;9688;51.906;8.376;2022-12-29T05:48:29;99213.59;;;12.45;91.33
19112;BME280;9688;51.906;8.376;2022-12-29T05:55:21;99212.75;;;12.45;91.61
19112;BME280;9688;51.906;8.376;2022-12-29T05:58:07;99209.03;;;12.47;91.79
19112;BME280;9688;51.906;8.376;2022-12-29T06:00:52;99216.88;;;12.49;91.54
19112;BME280;9688;51.906;8.376;2022-12-29T06:03:38;99222.09;;;12.50;91.13
19112;BME280;9688;51.906;8.376;2022-12-29T06:06:24;99225.50;;;12.53;91.81
19112;BME280;9688;51.906;8.376;2022-12-29T06:09:10;99228.84;;;12.55;90.94
19112;BME280;9688;51.906;8.376;2022-12-29T06:11:57;99218.16;;;12.56;90.80
19112;BME280;9688;51.906;8.376;2022-12-29T06:14:42;99220.81;;;12.56;91.46
19112;BME280;9688;51.906;8.376;2022-12-29T06:17:28;99222.41;;;12.59;90.97
19112;BME280;9688;51.906;8.376;2022-12-29T06:20:14;99234.59;;;12.61;90.45
19112;BME280;9688;51.906;8.376;2022-12-29T06:22:59;99226.31;;;12.66;90.23
19112;BME280;9688;51.906;8.376;2022-12-29T06:25:46;99230.34;;;12.71;90.12
19112;BME280;9688;51.906;8.376;2022-12-29T06:28:34;99221.97;;;12.78;89.36
19112;BME280;9688;51.906;8.376;2022-12-29T06:31:19;99255.16;;;12.83;89.33
19112;BME280;9688;51.906;8.376;2022-12-29T06:34:05;99247.63;;;12.90;88.56
19112;BME280;9688;51.906;8.376;2022-12-29T06:36:51;99255.97;;;12.97;88.33
19112;BME280;9688;51.906;8.376;2022-12-29T06:39:36;99286.03;;;12.97;88.08
19112;BME280;9688;51.906;8.376;2022-12-29T06:42:22;99287.31;;;12.79;89.29
19112;BME280;9688;51.906;8.376;2022-12-29T06:45:10;99289.94;;;12.53;90.40
19112;BME280;9688;51.906;8.376;2022-12-29T06:47:55;99278.91;;;12.34;91.10
19112;BME280;9688;51.906;8.376;2022-12-29T06:50:41;99287.56;;;12.23;91.60
19112;BME280;9688;51.906;8.376;2022-12-29T06:53:27;99279.78;;;12.07;92.19
19112;BME280;9688;51.906;8.376;2022-12-29T06:56:15;99279.34;;;12.00;92.75
19112;BME280;9688;51.906;8.376;2022-12-29T06:59:01;99285.78;;;11.96;92.28
19112;BME280;9688;51.906;8.376;2022-12-29T07:01:48;99288.22;;;11.99;91.76
19112;BME280;9688;51.906;8.376;2022-12-29T07:04:34;99295.97;;;12.02;91.96
19112;BME280;9688;51.906;8.376;2022-12-29T07:07:19;99293.84;;;12.08;91.77
19112;BME280;9688;51.906;8.376;2022-12-29T07:10:06;99283.72;;;12.14;91.32
19112;BME280;9688;51.906;8.376;2022-12-29T07:12:52;99283.19;;;12.22;90.88
19112;BME280;9688;51.906;8.376;2022-12-29T07:15:38;99296.06;;;12.28;90.99
19112;BME280;9688;51.906;8.376;2022-12-29T07:18:30;99314.28;;;12.33;90.90
19112;BME280;9688;51.906;8.376;2022-12-29T07:21:17;99321.94;;;12.37;90.92
19112;BME280;9688;51.906;8.376;2022-12-29T07:24:02;99334.28;;;12.24;91.86
19112;BME280;9688;51.906;8.376;2022-12-29T07:26:48;99327.94;;;11.99;92.67
19112;BME280;9688;51.906;8.376;2022-12-29T07:29:34;99322.78;;;11.69;93.91
19112;BME280;9688;51.906;8.376;2022-12-29T07:32:23;99337.59;;;11.45;94.44
19112;BME280;9688;51.906;8.376;2022-12-29T07:35:10;99330.69;;;11.28;95.72
19112;BME280;9688;51.906;8.376;2022-12-29T07:37:56;99336.69;;;11.17;96.71
19112;BME280;9688;51.906;8.376;2022-12-29T07:40:43;99336.09;;;11.12;96.64
19112;BME280;9688;51.906;8.376;2022-12-29T07:43:28;99338.75;;;11.12;97.30
19112;BME280;9688;51.906;8.376;2022-12-29T07:46:14;99339.47;;;11.14;96.76
19112;BME280;9688;51.906;8.376;2022-12-29T07:49:00;99347.91;;;11.21;97.39
19112;BME280;9688;51.906;8.376;2022-12-29T07:51:48;99357.34;;;11.25;97.24
19112;BME280;9688;51.906;8.376;2022-12-29T07:54:38;99358.75;;;11.30;96.98
19112;BME280;9688;51.906;8.376;2022-12-29T07:57:26;99361.25;;;11.33;97.61
19112;BME280;9688;51.906;8.376;2022-12-29T08:00:12;99353.31;;;11.33;96.70
19112;BME280;9688;51.906;8.376;2022-12-29T08:03:00;99363.13;;;11.31;96.79
19112;BME280;9688;51.906;8.376;2022-12-29T08:05:45;99371.25;;;11.28;96.85
19112;BME280;9688;51.906;8.376;2022-12-29T08:08:32;99367.94;;;11.25;97.44
19112;BME280;9688;51.906;8.376;2022-12-29T08:11:17;99373.03;;;11.28;97.42
19112;BME280;9688;51.906;8.376;2022-12-29T08:14:03;99387.78;;;11.32;97.19
19112;BME280;9688;51.906;8.376;2022-12-29T08:16:49;99387.59;;;11.35;97.08
19112;BME280;9688;51.906;8.376;2022-12-29T08:19:34;99396.28;;;11.37;97.25
19112;BME280;9688;51.906;8.376;2022-12-29T08:22:20;99392.50;;;11.41;97.19
19112;BME280;9688;51.906;8.376;2022-12-29T08:25:08;99376.72;;;11.39;97.42
19112;BME280;9688;51.906;8.376;2022-12-29T08:27:54;99373.06;;;11.42;98.21
19112;BME280;9688;51.906;8.376;2022-12-29T08:30:40;99392.50;;;11.41;98.02
19112;BME280;9688;51.906;8.376;2022-12-29T08:33:26;99379.28;;;11.41;97.86
19112;BME280;9688;51.906;8.376;2022-12-29T08:36:12;99392.41;;;11.43;97.46
19112;BME280;9688;51.906;8.376;2022-12-29T08:38:58;99395.81;;;11.45;97.22
19112;BME280;9688;51.906;8.376;2022-12-29T08:41:45;99401.78;;;11.48;97.70
19112;BME280;9688;51.906;8.376;2022-12-29T08:44:30;99407.16;;;11.47;98.32
19112;BME280;9688;51.906;8.376;2022-12-29T08:47:16;99416.81;;;11.48;98.29
19112;BME280;9688;51.906;8.376;2022-12-29T08:50:07;99426.25;;;11.52;97.49
19112;BME280;9688;51.906;8.376;2022-12-29T08:52:53;99435.91;;;11.53;97.74
19112;BME280;9688;51.906;8.376;2022-12-29T08:55:39;99428.88;;;11.52;98.53
19112;BME280;9688;51.906;8.376;2022-12-29T08:58:26;99414.63;;;11.40;99.39
19112;BME280;9688;51.906;8.376;2022-12-29T09:01:12;99408.47;;;11.25;99.52
19112;BME280;9688;51.906;8.376;2022-12-29T09:03:58;99417.50;;;11.07;99.37
19112;BME280;9688;51.906;8.376;2022-12-29T09:06:44;99409.25;;;10.97;99.61
19112;BME280;9688;51.906;8.376;2022-12-29T09:09:30;99416.34;;;10.97;100.00
19112;BME280;9688;51.906;8.376;2022-12-29T09:12:16;99418.91;;;10.98;100.00
19112;BME280;9688;51.906;8.376;2022-12-29T09:15:05;99416.28;;;10.98;100.00
19112;BME280;9688;51.906;8.376;2022-12-29T09:17:52;99414.88;;;11.07;100.00
19112;BME280;9688;51.906;8.376;2022-12-29T09:20:39;99413.38;;;11.17;100.00
19112;BME280;9688;51.906;8.376;2022-12-29T09:23:25;99410.06;;;11.28;99.64
19112;BME280;9688;51.906;8.376;2022-12-29T09:26:11;99413.97;;;11.36;98.48
19112;BME280;9688;51.906;8.376;2022-12-29T09:28:57;99421.53;;;11.43;98.52
19112;BME280;9688;51.906;8.376;2022-12-29T09:31:43;99413.47;;;11.44;96.82
19112;BME280;9688;51.906;8.376;2022-12-29T09:34:29;99409.72;;;11.48;97.14
19112;BME280;9688;51.906;8.376;2022-12-29T09:37:15;99415.66;;;11.52;95.46
19112;BME280;9688;51.906;8.376;2022-12-29T09:40:06;99425.13;;;11.56;94.71
19112;BME280;9688;51.906;8.376;2022-12-29T09:43:09;99437.22;;;11.60;93.96
19112;BME280;9688;51.906;8.376;2022-12-29T09:46:05;99432.56;;;11.64;93.17
19112;BME280;9688;51.906;8.376;2022-12-29T09:49:08;99448.09;;;11.70;93.42
19112;BME280;9688;51.906;8.376;2022-12-29T09:52:00;99446.66;;;11.78;92.66
19112;BME280;9688;51.906;8.376;2022-12-29T09:54:52;99448.69;;;11.89;92.61
19112;BME280;9688;51.906;8.376;2022-12-29T09:57:42;99452.75;;;11.95;91.57
19112;BME280;9688;51.906;8.376;2022-12-29T10:00:36;99460.75;;;11.93;91.77
19112;BME280;9688;51.906;8.376;2022-12-29T10:03:24;99465.97;;;11.95;91.46
19112;BME280;9688;51.906;8.376;2022-12-29T10:06:18;99455.28;;;11.96;91.18
19112;BME280;9688;51.906;8.376;2022-12-29T10:09:12;99450.94;;;11.95;91.00
19112;BME280;9688;51.906;8.376;2022-12-29T10:12:11;99439.78;;;11.90;91.03
19112;BME280;9688;51.906;8.376;2022-12-29T10:15:10;99456.88;;;11.84;91.08
19112;BME280;9688;51.906;8.376;2022-12-29T10:18:05;99447.13;;;11.85;90.88
19112;BME280;9688;51.906;8.376;2022-12-29T10:21:02;99455.94;;;11.86;90.20
19112;BME280;9688;51.906;8.376;2022-12-29T10:23:53;99447.81;;;11.89;90.36
19112;BME280;9688;51.906;8.376;2022-12-29T10:26:42;99441.19;;;11.96;89.40
19112;BME280;9688;51.906;8.376;2022-12-29T10:29:32;99444.19;;;12.04;89.20
19112;BME280;9688;51.906;8.376;2022-12-29T10:32:26;99459.13;;;12.19;88.52
19112;BME280;9688;51.906;8.376;2022-12-29T10:35:16;99442.59;;;12.43;87.49
19112;BME280;9688;51.906;8.376;2022-12-29T10:38:05;99450.28;;;12.60;86.41
19112;BME280;9688;51.906;8.376;2022-12-29T10:41:00;99447.56;;;12.75;85.58
19112;BME280;9688;51.906;8.376;2022-12-29T10:43:51;99450.97;;;12.77;84.72
19112;BME280;9688;51.906;8.376;2022-12-29T10:46:38;99447.56;;;12.75;84.58
19112;BME280;9688;51.906;8.376;2022-12-29T10:49:26;99453.19;;;12.70;83.97
19112;BME280;9688;51.906;8.376;2022-12-29T10:52:13;99444.41;;;12.69;83.28
19112;BME280;9688;51.906;8.376;2022-12-29T10:55:03;99442.88;;;12.65;82.74
19112;BME280;9688;51.906;8.376;2022-12-29T10:57:51;99441.41;;;12.61;82.82
19112;BME280;9688;51.906;8.376;2022-12-29T11:00:37;99441.28;;;12.63;82.55
19112;BME280;9688;51.906;8.376;2022-12-29T11:03:48;99437.22;;;12.57;82.48
19112;BME280;9688;51.906;8.376;2022-12-29T11:06:37;99433.66;;;12.58;82.78
19112;BME280;9688;51.906;8.376;2022-12-29T11:09:26;99447.00;;;12.57;82.32
19112;BME280;9688;51.906;8.376;2022-12-29T11:12:23;99437.56;;;12.53;81.72
19112;BME280;9688;51.906;8.376;2022-12-29T11:15:16;99436.69;;;12.52;82.30
19112;BME280;9688;51.906;8.376;2022-12-29T11:18:03;99436.59;;;12.54;82.32
19112;BME280;9688;51.906;8.376;2022-12-29T11:20:50;99449.94;;;12.52;81.59
19112;BME280;9688;51.906;8.376;2022-12-29T11:23:38;99434.03;;;12.52;82.51
19112;BME280;9688;51.906;8.376;2022-12-29T11:26:28;99449.28;;;12.48;82.25
19112;BME280;9688;51.906;8.376;2022-12-29T11:29:26;99451.38;;;12.43;81.83
19112;BME280;9688;51.906;8.376;2022-12-29T11:32:18;99456.81;;;12.42;82.80
19112;BME280;9688;51.906;8.376;2022-12-29T11:35:05;99466.53;;;12.41;82.61
19112;BME280;9688;51.906;8.376;2022-12-29T11:37:56;99465.88;;;12.38;81.97
19112;BME280;9688;51.906;8.376;2022-12-29T11:40:44;99458.06;;;12.36;81.98
19112;BME280;9688;51.906;8.376;2022-12-29T11:43:32;99452.00;;;12.34;82.23
19112;BME280;9688;51.906;8.376;2022-12-29T11:46:22;99462.59;;;12.34;81.82
19112;BME280;9688;51.906;8.376;2022-12-29T11:49:13;99495.16;;;12.36;81.85
19112;BME280;9688;51.906;8.376;2022-12-29T11:52:06;99470.13;;;12.40;81.25
19112;BME280;9688;51.906;8.376;2022-12-29T11:54:55;99476.28;;;12.41;81.13
19112;BME280;9688;51.906;8.376;2022-12-29T11:57:44;99463.78;;;12.43;81.40
19112;BME280;9688;51.906;8.376;2022-12-29T12:00:34;99466.34;;;12.44;80.73
19112;BME280;9688;51.906;8.376;2022-12-29T12:03:25;99468.13;;;12.44;80.17
19112;BME280;9688;51.906;8.376;2022-12-29T12:06:16;99466.44;;;12.43;79.83
19112;BME280;9688;51.906;8.376;2022-12-29T12:09:16;99467.28;;;12.43;79.60
19112;BME280;9688;51.906;8.376;2022-12-29T12:12:20;99470.78;;;12.44;79.61
19112;BME280;9688;51.906;8.376;2022-12-29T12:15:12;99475.25;;;12.43;79.47
19112;BME280;9688;51.906;8.376;2022-12-29T12:18:07;99460.19;;;12.44;79.39
19112;BME280;9688;51.906;8.376;2022-12-29T12:20:58;99484.78;;;12.46;79.10
19112;BME280;9688;51.906;8.376;2022-12-29T12:24:14;99469.00;;;12.44;78.66
19112;BME280;9688;51.906;8.376;2022-12-29T12:27:10;99480.25;;;12.48;78.61
19112;BME280;9688;51.906;8.376;2022-12-29T12:30:00;99475.78;;;12.48;78.15
19112;BME280;9688;51.906;8.376;2022-12-29T12:32:54;99465.00;;;12.52;77.68
19112;BME280;9688;51.906;8.376;2022-12-29T12:35:47;99474.66;;;12.53;77.79
19112;BME280;9688;51.906;8.376;2022-12-29T12:38:45;99498.41;;;12.54;77.74
19112;BME280;9688;51.906;8.376;2022-12-29T12:41:44;99488.66;;;12.55;77.50
19112;BME280;9688;51.906;8.376;2022-12-29T12:44:40;99485.78;;;12.58;77.25
19112;BME280;9688;51.906;8.376;2022-12-29T12:47:41;99501.69;;;12.58;77.76
19112;BME280;9688;51.906;8.376;2022-12-29T12:50:40;99498.97;;;12.59;77.13
19112;BME280;9688;51.906;8.376;2022-12-29T12:53:41;99502.56;;;12.58;77.47
19112;BME280;9688;51.906;8.376;2022-12-29T12:56:58;99496.81;;;12.52;77.65
19112;BME280;9688;51.906;8.376;2022-12-29T12:59:54;99514.31;;;12.54;77.61
19112;BME280;9688;51.906;8.376;2022-12-29T13:02:54;99513.56;;;12.52;77.77
19112;BME280;9688;51.906;8.376;2022-12-29T13:05:57;99519.72;;;12.53;77.21
19112;BME280;9688;51.906;8.376;2022-12-29T13:09:05;99523.22;;;12.53;77.10
19112;BME280;9688;51.906;8.376;2022-12-29T13:12:04;99513.75;;;12.49;77.25
19112;BME280;9688;51.906;8.376;2022-12-29T13:15:01;99539.34;;;12.50;76.85
19112;BME280;9688;51.906;8.376;2022-12-29T13:17:55;99547.28;;;12.50;77.81
19112;BME280;9688;51.906;8.376;2022-12-29T13:20:47;99548.00;;;12.52;77.66
19112;BME280;9688;51.906;8.376;2022-12-29T13:23:43;99551.63;;;12.51;76.94
19112;BME280;9688;51.906;8.376;2022-12-29T13:26:33;99555.03;;;12.53;77.41
19112;BME280;9688;51.906;8.376;2022-12-29T13:29:35;99546.41;;;12.49;77.56
19112;BME280;9688;51.906;8.376;2022-12-29T13:32:37;99552.88;;;12.45;77.38
19112;BME280;9688;51.906;8.376;2022-12-29T13:35:48;99541.63;;;12.42;77.29
19112;BME280;9688;51.906;8.376;2022-12-29T13:38:39;99556.75;;;12.40;77.45
19112;BME280;9688;51.906;8.376;2022-12-29T13:41:29;99577.13;;;12.39;77.78
19112;BME280;9688;51.906;8.376;2022-12-29T13:44:20;99566.72;;;12.36;77.71
19112;BME280;9688;51.906;8.376;2022-12-29T13:47:16;99580.88;;;12.35;77.35
19112;BME280;9688;51.906;8.376;2022-12-29T13:50:08;99588.06;;;12.33;77.56
19112;BME280;9688;51.906;8.376;2022-12-29T13:53:05;99581.94;;;12.33;77.58
19112;BME280;9688;51.906;8.376;2022-12-29T13:55:56;99595.28;;;12.31;77.72
19112;BME280;9688;51.906;8.376;2022-12-29T13:58:47;99607.69;;;12.31;77.35
19112;BME280;9688;51.906;8.376;2022-12-29T14:01:39;99607.69;;;12.31;77.14
19112;BME280;9688;51.906;8.376;2022-12-29T14:04:29;99597.25;;;12.27;77.83
19112;BME280;9688;51.906;8.376;2022-12-29T14:07:17;99609.00;;;12.23;77.82
19112;BME280;9688;51.906;8.376;2022-12-29T14:10:28;99610.25;;;12.18;77.89
19112;BME280;9688;51.906;8.376;2022-12-29T14:13:16;99612.81;;;12.19;77.46
19112;BME280;9688;51.906;8.376;2022-12-29T14:16:03;99620.91;;;12.16;78.41
19112;BME280;9688;51.906;8.376;2022-12-29T14:18:48;99613.84;;;12.17;77.81
19112;BME280;9688;51.906;8.376;2022-12-29T14:21:35;99628.03;;;12.16;78.21
19112;BME280;9688;51.906;8.376;2022-12-29T14:24:39;99633.63;;;12.11;78.38
19112;BME280;9688;51.906;8.376;2022-12-29T14:27:51;99633.69;;;12.10;77.97
19112;BME280;9688;51.906;8.376;2022-12-29T14:30:58;99632.84;;;12.09;78.70
19112;BME280;9688;51.906;8.376;2022-12-29T14:34:30;99638.16;;;12.09;78.73
19112;BME280;9688;51.906;8.376;2022-12-29T14:37:26;99646.28;;;12.06;78.93
19112;BME280;9688;51.906;8.376;2022-12-29T14:40:16;99640.31;;;12.02;78.59
19112;BME280;9688;51.906;8.376;2022-12-29T14:43:12;99642.09;;;12.02;79.32
19112;BME280;9688;51.906;8.376;2022-12-29T14:46:00;99644.84;;;12.00;79.33
19112;BME280;9688;51.906;8.376;2022-12-29T14:48:47;99641.53;;;11.97;78.78
19112;BME280;9688;51.906;8.376;2022-12-29T14:51:35;99639.06;;;11.94;78.81
19112;BME280;9688;51.906;8.376;2022-12-29T14:54:45;99625.94;;;11.92;79.25
19112;BME280;9688;51.906;8.376;2022-12-29T14:57:37;99647.13;;;11.92;78.83
19112;BME280;9688;51.906;8.376;2022-12-29T15:00:30;99643.78;;;11.89;79.15
19112;BME280;9688;51.906;8.376;2022-12-29T15:03:23;99655.31;;;11.88;79.37
19112;BME280;9688;51.906;8.376;2022-12-29T15:06:11;99644.72;;;11.88;79.44
19112;BME280;9688;51.906;8.376;2022-12-29T15:09:04;99653.44;;;11.90;79.13
19112;BME280;9688;51.906;8.376;2022-12-29T15:11:54;99667.72;;;11.87;79.45
19112;BME280;9688;51.906;8.376;2022-12-29T15:14:50;99676.63;;;11.86;79.19
19112;BME280;9688;51.906;8.376;2022-12-29T15:17:37;99674.00;;;11.84;79.63
19112;BME280;9688;51.906;8.376;2022-12-29T15:20:27;99667.19;;;11.80;79.77
19112;BME280;9688;51.906;8.376;2022-12-29T15:23:14;99663.78;;;11.78;79.40
19112;BME280;9688;51.906;8.376;2022-12-29T15:26:04;99672.75;;;11.76;79.45